ETHF

Fritzlar Airport

Fritzlar, Germany
METAR ETHF 170220Z 20004KT 9999 FEW007 SCT050 M00/M01 Q1016 BLU+
Observed Flight Rules
Dec-17 @ 02:20 UTC (12 minutes ago) Visual Flight Rules
Wind Visibility Clouds
200° at 4 knots 10,000+ meters
  • Few at 700' AGL
  • Scattered at 5,000' AGL
Temperatures Readings
Current 0°C / 32°F
Dewpoint -1°C / 30°F
Humidity 93%
Altimeter 30" Hg
Pressure 1016 hPa
Elevation 181
METAR ETHF 170220Z 20004KT 9999 FEW007 SCT050 M00/M01 Q1016 BLU+
Observed Flight Rules
Dec-17 @ 02:20 UTC
(12 minutes ago)
VFR
Wind Visibility
200° at 4 knots 10,000+ meters
Clouds
  • Few at 700' AGL
  • Scattered at 5,000' AGL
Temperature Dewpoint
0°C / 32°F -1°C / 30°F
Humidity Altimeter Pressure
93% 30" Hg 1016 hPa